sensor_id;sensor_type;location;lat;lon;timestamp;temperature;humidity
23550;DHT22;11953;49.010;8.608;2022-09-03T00:01:58;19.30;99.90
23550;DHT22;11953;49.010;8.608;2022-09-03T00:04:50;19.30;99.90
23550;DHT22;11953;49.010;8.608;2022-09-03T00:07:43;19.30;99.90
23550;DHT22;11953;49.010;8.608;2022-09-03T00:10:38;19.30;99.90
23550;DHT22;11953;49.010;8.608;2022-09-03T00:13:33;19.40;99.90
23550;DHT22;11953;49.010;8.608;2022-09-03T00:16:24;19.60;99.90
23550;DHT22;11953;49.010;8.608;2022-09-03T00:19:15;19.70;99.90
23550;DHT22;11953;49.010;8.608;2022-09-03T00:22:08;19.70;99.90
23550;DHT22;11953;49.010;8.608;2022-09-03T00:24:56;19.80;99.90
23550;DHT22;11953;49.010;8.608;2022-09-03T00:27:47;19.80;99.90
23550;DHT22;11953;49.010;8.608;2022-09-03T00:30:38;19.80;99.90
23550;DHT22;11953;49.010;8.608;2022-09-03T00:33:30;19.70;99.90
23550;DHT22;11953;49.010;8.608;2022-09-03T00:36:21;19.60;99.90
23550;DHT22;11953;49.010;8.608;2022-09-03T00:39:11;19.40;99.90
23550;DHT22;11953;49.010;8.608;2022-09-03T00:42:10;19.30;99.90
23550;DHT22;11953;49.010;8.608;2022-09-03T00:45:13;19.20;99.90
23550;DHT22;11953;49.010;8.608;2022-09-03T00:48:11;19.20;99.90
23550;DHT22;11953;49.010;8.608;2022-09-03T00:51:11;19.10;99.90
23550;DHT22;11953;49.010;8.608;2022-09-03T00:54:07;19.10;99.90
23550;DHT22;11953;49.010;8.608;2022-09-03T00:57:06;19.10;99.90
23550;DHT22;11953;49.010;8.608;2022-09-03T01:00:03;19.20;99.90
23550;DHT22;11953;49.010;8.608;2022-09-03T01:02:54;19.20;99.90
23550;DHT22;11953;49.010;8.608;2022-09-03T01:06:03;19.10;99.90
23550;DHT22;11953;49.010;8.608;2022-09-03T01:09:07;19.20;99.90
23550;DHT22;11953;49.010;8.608;2022-09-03T01:12:00;19.00;99.90
23550;DHT22;11953;49.010;8.608;2022-09-03T01:14:56;18.90;99.90
23550;DHT22;11953;49.010;8.608;2022-09-03T01:17:53;18.90;99.90
23550;DHT22;11953;49.010;8.608;2022-09-03T01:20:50;18.80;99.90
23550;DHT22;11953;49.010;8.608;2022-09-03T01:24:03;18.80;99.90
23550;DHT22;11953;49.010;8.608;2022-09-03T01:27:08;18.90;99.90
23550;DHT22;11953;49.010;8.608;2022-09-03T01:30:02;18.90;99.90
23550;DHT22;11953;49.010;8.608;2022-09-03T01:32:56;19.00;99.90
23550;DHT22;11953;49.010;8.608;2022-09-03T01:35:48;19.00;99.90
23550;DHT22;11953;49.010;8.608;2022-09-03T01:38:42;19.10;99.90
23550;DHT22;11953;49.010;8.608;2022-09-03T01:41:43;19.20;99.90
23550;DHT22;11953;49.010;8.608;2022-09-03T01:48:31;19.30;99.90
23550;DHT22;11953;49.010;8.608;2022-09-03T01:51:20;19.40;99.90
23550;DHT22;11953;49.010;8.608;2022-09-03T01:54:36;19.20;99.90
23550;DHT22;11953;49.010;8.608;2022-09-03T01:57:37;19.10;99.90
23550;DHT22;11953;49.010;8.608;2022-09-03T02:00:30;19.20;99.90
23550;DHT22;11953;49.010;8.608;2022-09-03T02:03:19;19.20;99.90
23550;DHT22;11953;49.010;8.608;2022-09-03T02:06:07;19.20;99.90
23550;DHT22;11953;49.010;8.608;2022-09-03T02:08:53;19.10;99.90
23550;DHT22;11953;49.010;8.608;2022-09-03T02:11:41;19.10;99.90
23550;DHT22;11953;49.010;8.608;2022-09-03T02:14:29;18.90;99.90
23550;DHT22;11953;49.010;8.608;2022-09-03T02:17:17;19.00;99.90
23550;DHT22;11953;49.010;8.608;2022-09-03T02:20:06;19.00;99.90
23550;DHT22;11953;49.010;8.608;2022-09-03T02:22:55;19.00;99.90
23550;DHT22;11953;49.010;8.608;2022-09-03T02:25:46;19.00;99.90
23550;DHT22;11953;49.010;8.608;2022-09-03T02:28:33;19.00;99.90
23550;DHT22;11953;49.010;8.608;2022-09-03T02:31:20;18.90;99.90
23550;DHT22;11953;49.010;8.608;2022-09-03T02:34:09;18.90;99.90
23550;DHT22;11953;49.010;8.608;2022-09-03T02:36:55;18.90;99.90
23550;DHT22;11953;49.010;8.608;2022-09-03T02:39:43;18.90;99.90
23550;DHT22;11953;49.010;8.608;2022-09-03T02:42:30;19.00;99.90
23550;DHT22;11953;49.010;8.608;2022-09-03T02:45:22;18.90;99.90
23550;DHT22;11953;49.010;8.608;2022-09-03T02:48:13;18.90;99.90
23550;DHT22;11953;49.010;8.608;2022-09-03T02:51:03;18.80;99.90
23550;DHT22;11953;49.010;8.608;2022-09-03T02:53:58;18.40;99.90
23550;DHT22;11953;49.010;8.608;2022-09-03T02:56:45;18.00;99.90
23550;DHT22;11953;49.010;8.608;2022-09-03T02:59:33;18.00;99.90
23550;DHT22;11953;49.010;8.608;2022-09-03T03:02:20;17.80;99.90
23550;DHT22;11953;49.010;8.608;2022-09-03T03:05:09;17.80;99.90
23550;DHT22;11953;49.010;8.608;2022-09-03T03:08:01;17.70;99.90
23550;DHT22;11953;49.010;8.608;2022-09-03T03:10:48;17.40;99.90
23550;DHT22;11953;49.010;8.608;2022-09-03T03:13:36;17.30;99.90
23550;DHT22;11953;49.010;8.608;2022-09-03T03:16:23;17.20;99.90
23550;DHT22;11953;49.010;8.608;2022-09-03T03:19:10;17.20;99.90
23550;DHT22;11953;49.010;8.608;2022-09-03T03:21:56;17.30;99.90
23550;DHT22;11953;49.010;8.608;2022-09-03T03:24:44;17.40;99.90
23550;DHT22;11953;49.010;8.608;2022-09-03T03:27:31;17.30;99.90
23550;DHT22;11953;49.010;8.608;2022-09-03T03:30:18;17.40;99.90
23550;DHT22;11953;49.010;8.608;2022-09-03T03:33:05;17.50;99.90
23550;DHT22;11953;49.010;8.608;2022-09-03T03:35:52;17.60;99.90
23550;DHT22;11953;49.010;8.608;2022-09-03T03:38:40;17.40;99.90
23550;DHT22;11953;49.010;8.608;2022-09-03T03:41:31;17.40;99.90
23550;DHT22;11953;49.010;8.608;2022-09-03T03:44:18;17.40;99.90
23550;DHT22;11953;49.010;8.608;2022-09-03T03:47:05;17.50;99.90
23550;DHT22;11953;49.010;8.608;2022-09-03T03:49:52;17.50;99.90
23550;DHT22;11953;49.010;8.608;2022-09-03T03:52:38;17.60;99.90
23550;DHT22;11953;49.010;8.608;2022-09-03T03:55:25;17.70;99.90
23550;DHT22;11953;49.010;8.608;2022-09-03T03:58:13;17.90;99.90
23550;DHT22;11953;49.010;8.608;2022-09-03T04:01:04;18.10;99.90
23550;DHT22;11953;49.010;8.608;2022-09-03T04:03:51;18.10;99.90
23550;DHT22;11953;49.010;8.608;2022-09-03T04:06:41;18.10;99.90
23550;DHT22;11953;49.010;8.608;2022-09-03T04:09:27;18.20;99.90
23550;DHT22;11953;49.010;8.608;2022-09-03T04:12:14;18.30;99.90
23550;DHT22;11953;49.010;8.608;2022-09-03T04:15:02;18.40;99.90
23550;DHT22;11953;49.010;8.608;2022-09-03T04:17:53;18.50;99.90
23550;DHT22;11953;49.010;8.608;2022-09-03T04:20:40;18.50;99.90
23550;DHT22;11953;49.010;8.608;2022-09-03T04:23:27;18.60;99.90
23550;DHT22;11953;49.010;8.608;2022-09-03T04:26:16;18.60;99.90
23550;DHT22;11953;49.010;8.608;2022-09-03T04:29:04;18.60;99.90
23550;DHT22;11953;49.010;8.608;2022-09-03T04:31:53;18.50;99.90
23550;DHT22;11953;49.010;8.608;2022-09-03T04:34:57;18.70;99.90
23550;DHT22;11953;49.010;8.608;2022-09-03T04:37:43;18.70;99.90
23550;DHT22;11953;49.010;8.608;2022-09-03T04:40:30;18.60;99.90
23550;DHT22;11953;49.010;8.608;2022-09-03T04:43:16;18.60;99.90
23550;DHT22;11953;49.010;8.608;2022-09-03T04:46:05;18.60;99.90
23550;DHT22;11953;49.010;8.608;2022-09-03T04:49:03;18.50;99.90
23550;DHT22;11953;49.010;8.608;2022-09-03T04:51:51;18.50;99.90
23550;DHT22;11953;49.010;8.608;2022-09-03T04:54:37;18.40;99.90
23550;DHT22;11953;49.010;8.608;2022-09-03T04:57:24;18.50;99.90
23550;DHT22;11953;49.010;8.608;2022-09-03T05:00:18;18.40;99.90
23550;DHT22;11953;49.010;8.608;2022-09-03T05:03:06;18.50;99.90
23550;DHT22;11953;49.010;8.608;2022-09-03T05:05:55;18.50;99.90
23550;DHT22;11953;49.010;8.608;2022-09-03T05:08:41;18.40;99.90
23550;DHT22;11953;49.010;8.608;2022-09-03T05:11:29;18.40;99.90
23550;DHT22;11953;49.010;8.608;2022-09-03T05:14:16;18.40;99.90
23550;DHT22;11953;49.010;8.608;2022-09-03T05:17:02;18.40;99.90
23550;DHT22;11953;49.010;8.608;2022-09-03T05:19:49;18.30;99.90
23550;DHT22;11953;49.010;8.608;2022-09-03T05:22:36;18.30;99.90
23550;DHT22;11953;49.010;8.608;2022-09-03T05:25:23;18.40;99.90
23550;DHT22;11953;49.010;8.608;2022-09-03T05:28:10;18.40;99.90
23550;DHT22;11953;49.010;8.608;2022-09-03T05:30:58;18.40;99.90
23550;DHT22;11953;49.010;8.608;2022-09-03T05:33:46;18.40;99.90
23550;DHT22;11953;49.010;8.608;2022-09-03T05:36:34;18.40;99.90
23550;DHT22;11953;49.010;8.608;2022-09-03T05:39:23;18.40;99.90
23550;DHT22;11953;49.010;8.608;2022-09-03T05:42:09;18.60;99.90
23550;DHT22;11953;49.010;8.608;2022-09-03T05:44:56;18.60;99.90
23550;DHT22;11953;49.010;8.608;2022-09-03T05:47:43;18.70;99.90
23550;DHT22;11953;49.010;8.608;2022-09-03T05:50:30;18.60;99.90
23550;DHT22;11953;49.010;8.608;2022-09-03T05:53:17;18.60;99.90
23550;DHT22;11953;49.010;8.608;2022-09-03T05:56:07;18.60;99.90
23550;DHT22;11953;49.010;8.608;2022-09-03T05:58:56;18.70;99.90
23550;DHT22;11953;49.010;8.608;2022-09-03T06:01:45;18.70;99.90
23550;DHT22;11953;49.010;8.608;2022-09-03T06:04:37;18.70;99.90
23550;DHT22;11953;49.010;8.608;2022-09-03T06:07:27;18.50;99.90
23550;DHT22;11953;49.010;8.608;2022-09-03T06:10:14;18.50;99.90
23550;DHT22;11953;49.010;8.608;2022-09-03T06:13:05;18.70;99.90
23550;DHT22;11953;49.010;8.608;2022-09-03T06:15:55;18.80;99.90
23550;DHT22;11953;49.010;8.608;2022-09-03T06:18:42;18.80;99.90
23550;DHT22;11953;49.010;8.608;2022-09-03T06:21:30;18.80;99.90
23550;DHT22;11953;49.010;8.608;2022-09-03T06:24:18;18.50;99.90
23550;DHT22;11953;49.010;8.608;2022-09-03T06:27:11;18.30;99.90
23550;DHT22;11953;49.010;8.608;2022-09-03T06:30:00;18.10;99.90
23550;DHT22;11953;49.010;8.608;2022-09-03T06:32:46;18.20;99.90
23550;DHT22;11953;49.010;8.608;2022-09-03T06:35:35;18.20;99.90
23550;DHT22;11953;49.010;8.608;2022-09-03T06:38:29;18.10;99.90
23550;DHT22;11953;49.010;8.608;2022-09-03T06:41:18;17.90;99.90
23550;DHT22;11953;49.010;8.608;2022-09-03T06:44:09;17.90;99.90
23550;DHT22;11953;49.010;8.608;2022-09-03T06:46:58;18.00;99.90
23550;DHT22;11953;49.010;8.608;2022-09-03T06:49:46;18.20;99.90
23550;DHT22;11953;49.010;8.608;2022-09-03T06:52:32;18.30;99.90
23550;DHT22;11953;49.010;8.608;2022-09-03T06:55:18;18.20;99.90
23550;DHT22;11953;49.010;8.608;2022-09-03T06:58:05;18.20;99.90
23550;DHT22;11953;49.010;8.608;2022-09-03T07:00:51;18.20;99.90
23550;DHT22;11953;49.010;8.608;2022-09-03T07:03:41;18.40;99.90
23550;DHT22;11953;49.010;8.608;2022-09-03T07:06:29;18.50;99.90
23550;DHT22;11953;49.010;8.608;2022-09-03T07:09:16;18.50;99.90
23550;DHT22;11953;49.010;8.608;2022-09-03T07:12:03;18.80;99.90
23550;DHT22;11953;49.010;8.608;2022-09-03T07:14:51;19.00;99.90
23550;DHT22;11953;49.010;8.608;2022-09-03T07:17:37;19.20;99.90
23550;DHT22;11953;49.010;8.608;2022-09-03T07:20:26;19.40;99.90
23550;DHT22;11953;49.010;8.608;2022-09-03T07:23:13;19.70;99.90
23550;DHT22;11953;49.010;8.608;2022-09-03T07:26:02;19.90;99.90
23550;DHT22;11953;49.010;8.608;2022-09-03T07:28:50;19.90;99.90
23550;DHT22;11953;49.010;8.608;2022-09-03T07:31:40;20.00;99.90
23550;DHT22;11953;49.010;8.608;2022-09-03T07:34:27;20.20;99.90
23550;DHT22;11953;49.010;8.608;2022-09-03T07:37:16;20.20;99.90
23550;DHT22;11953;49.010;8.608;2022-09-03T07:40:03;20.40;99.90
23550;DHT22;11953;49.010;8.608;2022-09-03T07:42:55;20.40;99.90
23550;DHT22;11953;49.010;8.608;2022-09-03T07:45:49;20.50;99.90
23550;DHT22;11953;49.010;8.608;2022-09-03T07:48:36;20.30;99.90
23550;DHT22;11953;49.010;8.608;2022-09-03T07:51:24;20.40;99.90
23550;DHT22;11953;49.010;8.608;2022-09-03T07:54:13;20.40;99.90
23550;DHT22;11953;49.010;8.608;2022-09-03T07:57:00;20.20;99.90
23550;DHT22;11953;49.010;8.608;2022-09-03T07:59:47;20.30;99.90
23550;DHT22;11953;49.010;8.608;2022-09-03T08:02:33;20.30;99.90
23550;DHT22;11953;49.010;8.608;2022-09-03T08:05:20;20.40;99.90
23550;DHT22;11953;49.010;8.608;2022-09-03T08:08:07;20.50;99.90
23550;DHT22;11953;49.010;8.608;2022-09-03T08:11:05;20.60;99.90
23550;DHT22;11953;49.010;8.608;2022-09-03T08:13:54;20.60;99.90
23550;DHT22;11953;49.010;8.608;2022-09-03T08:16:46;20.50;99.90
23550;DHT22;11953;49.010;8.608;2022-09-03T08:19:33;20.50;99.90
23550;DHT22;11953;49.010;8.608;2022-09-03T08:22:20;20.40;99.90
23550;DHT22;11953;49.010;8.608;2022-09-03T08:25:07;20.30;99.90
23550;DHT22;11953;49.010;8.608;2022-09-03T08:27:59;20.30;99.90
23550;DHT22;11953;49.010;8.608;2022-09-03T08:30:46;20.10;99.90
23550;DHT22;11953;49.010;8.608;2022-09-03T08:33:33;20.10;99.90
23550;DHT22;11953;49.010;8.608;2022-09-03T08:36:24;20.30;99.90
23550;DHT22;11953;49.010;8.608;2022-09-03T08:39:12;20.30;99.90
23550;DHT22;11953;49.010;8.608;2022-09-03T08:42:24;20.00;99.90
23550;DHT22;11953;49.010;8.608;2022-09-03T08:45:18;20.20;99.90
23550;DHT22;11953;49.010;8.608;2022-09-03T08:48:09;20.30;99.90
23550;DHT22;11953;49.010;8.608;2022-09-03T08:51:00;20.60;99.90
23550;DHT22;11953;49.010;8.608;2022-09-03T08:53:51;20.60;99.90
23550;DHT22;11953;49.010;8.608;2022-09-03T08:56:42;20.50;99.90
23550;DHT22;11953;49.010;8.608;2022-09-03T08:59:29;20.50;99.90
23550;DHT22;11953;49.010;8.608;2022-09-03T09:02:25;20.50;99.90
23550;DHT22;11953;49.010;8.608;2022-09-03T09:05:22;20.50;99.90
23550;DHT22;11953;49.010;8.608;2022-09-03T09:08:19;20.10;99.90
23550;DHT22;11953;49.010;8.608;2022-09-03T09:11:18;19.80;99.90
23550;DHT22;11953;49.010;8.608;2022-09-03T09:14:15;19.90;99.90
23550;DHT22;11953;49.010;8.608;2022-09-03T09:17:18;19.70;99.90
23550;DHT22;11953;49.010;8.608;2022-09-03T09:20:13;19.60;99.90
23550;DHT22;11953;49.010;8.608;2022-09-03T09:23:05;19.70;99.90
23550;DHT22;11953;49.010;8.608;2022-09-03T09:25:55;19.90;99.90
23550;DHT22;11953;49.010;8.608;2022-09-03T09:28:45;20.30;99.90
23550;DHT22;11953;49.010;8.608;2022-09-03T09:31:37;20.40;99.90
23550;DHT22;11953;49.010;8.608;2022-09-03T09:34:24;20.90;99.90
23550;DHT22;11953;49.010;8.608;2022-09-03T09:37:14;21.40;99.90
23550;DHT22;11953;49.010;8.608;2022-09-03T09:40:02;21.70;99.90
23550;DHT22;11953;49.010;8.608;2022-09-03T09:42:50;21.40;99.90
23550;DHT22;11953;49.010;8.608;2022-09-03T09:45:44;21.20;99.90
23550;DHT22;11953;49.010;8.608;2022-09-03T09:48:37;21.20;99.90
23550;DHT22;11953;49.010;8.608;2022-09-03T09:51:27;21.30;99.90
23550;DHT22;11953;49.010;8.608;2022-09-03T09:54:17;21.60;99.90
23550;DHT22;11953;49.010;8.608;2022-09-03T09:57:07;21.90;99.90
23550;DHT22;11953;49.010;8.608;2022-09-03T10:00:03;22.10;99.90
23550;DHT22;11953;49.010;8.608;2022-09-03T10:02:55;22.60;99.90
23550;DHT22;11953;49.010;8.608;2022-09-03T10:05:43;23.00;99.90
23550;DHT22;11953;49.010;8.608;2022-09-03T10:08:40;23.40;99.90
23550;DHT22;11953;49.010;8.608;2022-09-03T10:11:28;23.50;99.90
23550;DHT22;11953;49.010;8.608;2022-09-03T10:14:19;23.50;99.90
23550;DHT22;11953;49.010;8.608;2022-09-03T10:17:12;23.70;99.90
23550;DHT22;11953;49.010;8.608;2022-09-03T10:20:06;23.80;99.90
23550;DHT22;11953;49.010;8.608;2022-09-03T10:23:18;24.00;99.90
23550;DHT22;11953;49.010;8.608;2022-09-03T10:26:09;25.10;99.90
23550;DHT22;11953;49.010;8.608;2022-09-03T10:29:01;26.20;99.90
23550;DHT22;11953;49.010;8.608;2022-09-03T10:31:59;26.60;99.90
23550;DHT22;11953;49.010;8.608;2022-09-03T10:34:53;26.10;99.90
23550;DHT22;11953;49.010;8.608;2022-09-03T10:37:52;25.60;99.90
23550;DHT22;11953;49.010;8.608;2022-09-03T10:40:47;25.70;99.90
23550;DHT22;11953;49.010;8.608;2022-09-03T10:46:56;25.60;99.90
23550;DHT22;11953;49.010;8.608;2022-09-03T10:49:50;25.80;99.90
23550;DHT22;11953;49.010;8.608;2022-09-03T10:52:49;25.70;99.90
23550;DHT22;11953;49.010;8.608;2022-09-03T10:55:48;25.70;99.90
23550;DHT22;11953;49.010;8.608;2022-09-03T10:58:47;25.80;99.90
23550;DHT22;11953;49.010;8.608;2022-09-03T11:01:41;25.50;99.90
23550;DHT22;11953;49.010;8.608;2022-09-03T11:04:37;25.10;99.90
23550;DHT22;11953;49.010;8.608;2022-09-03T11:07:35;24.70;99.90
23550;DHT22;11953;49.010;8.608;2022-09-03T11:10:27;24.10;99.90
23550;DHT22;11953;49.010;8.608;2022-09-03T11:13:19;24.00;99.90
23550;DHT22;11953;49.010;8.608;2022-09-03T11:16:11;23.90;99.90
23550;DHT22;11953;49.010;8.608;2022-09-03T11:19:02;23.90;99.90
23550;DHT22;11953;49.010;8.608;2022-09-03T11:21:51;23.80;99.90
23550;DHT22;11953;49.010;8.608;2022-09-03T11:24:39;23.70;99.90
23550;DHT22;11953;49.010;8.608;2022-09-03T11:27:35;23.60;99.90
23550;DHT22;11953;49.010;8.608;2022-09-03T11:30:36;23.50;99.90
23550;DHT22;11953;49.010;8.608;2022-09-03T11:33:26;23.10;99.90
23550;DHT22;11953;49.010;8.608;2022-09-03T11:36:22;22.90;99.90
23550;DHT22;11953;49.010;8.608;2022-09-03T11:39:21;23.00;99.90
23550;DHT22;11953;49.010;8.608;2022-09-03T11:42:11;23.10;99.90
23550;DHT22;11953;49.010;8.608;2022-09-03T11:45:11;23.30;99.90
23550;DHT22;11953;49.010;8.608;2022-09-03T11:47:59;23.50;99.90
23550;DHT22;11953;49.010;8.608;2022-09-03T11:50:54;23.60;99.90
23550;DHT22;11953;49.010;8.608;2022-09-03T11:53:40;23.90;99.90
23550;DHT22;11953;49.010;8.608;2022-09-03T11:56:30;24.10;99.90
23550;DHT22;11953;49.010;8.608;2022-09-03T11:59:18;24.40;99.90
23550;DHT22;11953;49.010;8.608;2022-09-03T12:02:15;24.60;99.90
23550;DHT22;11953;49.010;8.608;2022-09-03T12:05:16;24.80;99.90
23550;DHT22;11953;49.010;8.608;2022-09-03T12:08:34;24.70;99.90
23550;DHT22;11953;49.010;8.608;2022-09-03T12:11:40;25.30;99.90
23550;DHT22;11953;49.010;8.608;2022-09-03T12:14:34;25.70;99.90
23550;DHT22;11953;49.010;8.608;2022-09-03T12:17:29;25.90;99.90
23550;DHT22;11953;49.010;8.608;2022-09-03T12:20:17;26.10;99.90
23550;DHT22;11953;49.010;8.608;2022-09-03T12:23:09;26.40;99.90
23550;DHT22;11953;49.010;8.608;2022-09-03T12:25:57;26.50;99.90
23550;DHT22;11953;49.010;8.608;2022-09-03T12:28:48;26.30;99.90
23550;DHT22;11953;49.010;8.608;2022-09-03T12:31:43;26.20;99.90
23550;DHT22;11953;49.010;8.608;2022-09-03T12:34:32;25.80;99.90
23550;DHT22;11953;49.010;8.608;2022-09-03T12:37:21;25.50;99.90
23550;DHT22;11953;49.010;8.608;2022-09-03T12:40:29;25.60;99.90
23550;DHT22;11953;49.010;8.608;2022-09-03T12:43:17;25.90;99.90
23550;DHT22;11953;49.010;8.608;2022-09-03T12:46:27;26.40;99.90
23550;DHT22;11953;49.010;8.608;2022-09-03T12:49:18;26.50;99.90
23550;DHT22;11953;49.010;8.608;2022-09-03T12:52:19;26.10;99.90
23550;DHT22;11953;49.010;8.608;2022-09-03T12:55:11;25.70;99.90
23550;DHT22;11953;49.010;8.608;2022-09-03T12:58:04;25.40;99.90
23550;DHT22;11953;49.010;8.608;2022-09-03T13:01:02;25.20;99.90
23550;DHT22;11953;49.010;8.608;2022-09-03T13:03:54;25.10;99.90
23550;DHT22;11953;49.010;8.608;2022-09-03T13:06:48;25.30;99.90
23550;DHT22;11953;49.010;8.608;2022-09-03T13:09:37;25.60;99.90
23550;DHT22;11953;49.010;8.608;2022-09-03T13:12:28;26.00;99.90
23550;DHT22;11953;49.010;8.608;2022-09-03T13:15:20;26.40;99.90
23550;DHT22;11953;49.010;8.608;2022-09-03T13:18:17;26.30;99.90
23550;DHT22;11953;49.010;8.608;2022-09-03T13:21:12;26.00;99.90
23550;DHT22;11953;49.010;8.608;2022-09-03T13:24:11;25.60;99.90
23550;DHT22;11953;49.010;8.608;2022-09-03T13:27:07;25.20;99.90
23550;DHT22;11953;49.010;8.608;2022-09-03T13:30:04;24.80;99.90
23550;DHT22;11953;49.010;8.608;2022-09-03T13:32:56;24.60;99.90
23550;DHT22;11953;49.010;8.608;2022-09-03T13:35:48;24.50;99.90
23550;DHT22;11953;49.010;8.608;2022-09-03T13:38:42;24.70;99.90
23550;DHT22;11953;49.010;8.608;2022-09-03T13:41:35;24.90;99.90
23550;DHT22;11953;49.010;8.608;2022-09-03T13:44:34;24.90;99.90
23550;DHT22;11953;49.010;8.608;2022-09-03T13:47:28;24.90;99.90
23550;DHT22;11953;49.010;8.608;2022-09-03T13:50:20;25.10;99.90
23550;DHT22;11953;49.010;8.608;2022-09-03T13:53:18;25.20;99.90
23550;DHT22;11953;49.010;8.608;2022-09-03T13:56:21;25.00;99.90
23550;DHT22;11953;49.010;8.608;2022-09-03T13:59:16;25.00;99.90
23550;DHT22;11953;49.010;8.608;2022-09-03T14:02:17;25.10;99.90
23550;DHT22;11953;49.010;8.608;2022-09-03T14:05:08;25.30;99.90
23550;DHT22;11953;49.010;8.608;2022-09-03T14:08:04;25.30;99.90
23550;DHT22;11953;49.010;8.608;2022-09-03T14:11:01;25.30;99.90
23550;DHT22;11953;49.010;8.608;2022-09-03T14:14:01;25.40;99.90
23550;DHT22;11953;49.010;8.608;2022-09-03T14:16:55;25.30;99.90
23550;DHT22;11953;49.010;8.608;2022-09-03T14:19:47;25.10;99.90
23550;DHT22;11953;49.010;8.608;2022-09-03T14:22:48;24.90;99.90
23550;DHT22;11953;49.010;8.608;2022-09-03T14:25:36;24.80;99.90
23550;DHT22;11953;49.010;8.608;2022-09-03T14:28:34;24.70;99.90
23550;DHT22;11953;49.010;8.608;2022-09-03T14:31:28;24.60;99.90
23550;DHT22;11953;49.010;8.608;2022-09-03T14:34:28;24.60;99.90
23550;DHT22;11953;49.010;8.608;2022-09-03T14:37:33;24.80;99.90
23550;DHT22;11953;49.010;8.608;2022-09-03T14:40:29;24.90;99.90
23550;DHT22;11953;49.010;8.608;2022-09-03T14:43:35;25.00;99.90
23550;DHT22;11953;49.010;8.608;2022-09-03T14:46:38;25.10;99.90
23550;DHT22;11953;49.010;8.608;2022-09-03T14:49:53;25.20;99.90
23550;DHT22;11953;49.010;8.608;2022-09-03T14:52:58;25.20;99.90
23550;DHT22;11953;49.010;8.608;2022-09-03T14:56:00;25.10;99.90
23550;DHT22;11953;49.010;8.608;2022-09-03T14:59:09;25.10;99.90
23550;DHT22;11953;49.010;8.608;2022-09-03T15:02:28;25.10;99.90
23550;DHT22;11953;49.010;8.608;2022-09-03T15:05:33;25.10;99.90
23550;DHT22;11953;49.010;8.608;2022-09-03T15:08:38;25.00;99.90
23550;DHT22;11953;49.010;8.608;2022-09-03T15:11:29;24.90;99.90
23550;DHT22;11953;49.010;8.608;2022-09-03T15:14:23;24.80;99.90
23550;DHT22;11953;49.010;8.608;2022-09-03T15:17:44;24.70;99.90
23550;DHT22;11953;49.010;8.608;2022-09-03T15:20:40;24.40;99.90
23550;DHT22;11953;49.010;8.608;2022-09-03T15:23:46;24.30;99.90
23550;DHT22;11953;49.010;8.608;2022-09-03T15:26:46;24.30;99.90
23550;DHT22;11953;49.010;8.608;2022-09-03T15:29:48;24.20;99.90
23550;DHT22;11953;49.010;8.608;2022-09-03T15:32:49;24.10;99.90
23550;DHT22;11953;49.010;8.608;2022-09-03T15:35:50;23.90;99.90
23550;DHT22;11953;49.010;8.608;2022-09-03T15:38:46;23.90;99.90
23550;DHT22;11953;49.010;8.608;2022-09-03T15:41:40;23.80;99.90
23550;DHT22;11953;49.010;8.608;2022-09-03T15:44:34;23.70;99.90
23550;DHT22;11953;49.010;8.608;2022-09-03T15:47:34;23.60;99.90
23550;DHT22;11953;49.010;8.608;2022-09-03T15:50:49;23.60;99.90
23550;DHT22;11953;49.010;8.608;2022-09-03T15:53:41;23.60;99.90
23550;DHT22;11953;49.010;8.608;2022-09-03T15:56:33;23.50;99.90
23550;DHT22;11953;49.010;8.608;2022-09-03T15:59:26;23.60;99.90
23550;DHT22;11953;49.010;8.608;2022-09-03T16:02:18;23.50;99.90
23550;DHT22;11953;49.010;8.608;2022-09-03T16:05:11;23.50;99.90
23550;DHT22;11953;49.010;8.608;2022-09-03T16:08:12;23.40;99.90
23550;DHT22;11953;49.010;8.608;2022-09-03T16:11:06;23.40;99.90
23550;DHT22;11953;49.010;8.608;2022-09-03T16:14:01;23.40;99.90
23550;DHT22;11953;49.010;8.608;2022-09-03T16:16:58;23.40;99.90
23550;DHT22;11953;49.010;8.608;2022-09-03T16:19:53;23.40;99.90
23550;DHT22;11953;49.010;8.608;2022-09-03T16:22:44;23.40;99.90
23550;DHT22;11953;49.010;8.608;2022-09-03T16:25:43;23.40;99.90
23550;DHT22;11953;49.010;8.608;2022-09-03T16:28:40;23.50;99.90
23550;DHT22;11953;49.010;8.608;2022-09-03T16:31:40;23.50;99.90
23550;DHT22;11953;49.010;8.608;2022-09-03T16:34:34;23.40;99.90
23550;DHT22;11953;49.010;8.608;2022-09-03T16:37:32;23.40;99.90
23550;DHT22;11953;49.010;8.608;2022-09-03T16:40:27;23.40;99.90
23550;DHT22;11953;49.010;8.608;2022-09-03T16:43:24;23.30;99.90
23550;DHT22;11953;49.010;8.608;2022-09-03T16:46:33;23.40;99.90
23550;DHT22;11953;49.010;8.608;2022-09-03T16:49:37;23.40;99.90
23550;DHT22;11953;49.010;8.608;2022-09-03T16:52:32;23.50;99.90
23550;DHT22;11953;49.010;8.608;2022-09-03T16:55:27;23.50;99.90
23550;DHT22;11953;49.010;8.608;2022-09-03T16:58:23;23.40;99.90
23550;DHT22;11953;49.010;8.608;2022-09-03T17:01:20;23.40;99.90
23550;DHT22;11953;49.010;8.608;2022-09-03T17:07:40;23.50;99.90
23550;DHT22;11953;49.010;8.608;2022-09-03T17:10:35;23.30;99.90
23550;DHT22;11953;49.010;8.608;2022-09-03T17:13:45;23.30;99.90
23550;DHT22;11953;49.010;8.608;2022-09-03T17:16:44;23.30;99.90
23550;DHT22;11953;49.010;8.608;2022-09-03T17:19:43;23.20;99.90
23550;DHT22;11953;49.010;8.608;2022-09-03T17:22:41;23.10;99.90
23550;DHT22;11953;49.010;8.608;2022-09-03T17:25:35;23.10;99.90
23550;DHT22;11953;49.010;8.608;2022-09-03T17:28:27;23.10;99.90
23550;DHT22;11953;49.010;8.608;2022-09-03T17:31:28;23.10;99.90
23550;DHT22;11953;49.010;8.608;2022-09-03T17:34:32;23.10;99.90
23550;DHT22;11953;49.010;8.608;2022-09-03T17:37:29;23.00;99.90
23550;DHT22;11953;49.010;8.608;2022-09-03T17:40:27;22.90;99.90
23550;DHT22;11953;49.010;8.608;2022-09-03T17:43:21;23.00;99.90
23550;DHT22;11953;49.010;8.608;2022-09-03T17:46:19;22.80;99.90
23550;DHT22;11953;49.010;8.608;2022-09-03T17:49:15;22.70;99.90
23550;DHT22;11953;49.010;8.608;2022-09-03T17:52:20;22.60;99.90
23550;DHT22;11953;49.010;8.608;2022-09-03T17:55:14;22.60;99.90
23550;DHT22;11953;49.010;8.608;2022-09-03T17:58:10;22.60;99.90
23550;DHT22;11953;49.010;8.608;2022-09-03T18:01:04;22.60;99.90
23550;DHT22;11953;49.010;8.608;2022-09-03T18:03:54;22.60;99.90
23550;DHT22;11953;49.010;8.608;2022-09-03T18:06:49;22.60;99.90
23550;DHT22;11953;49.010;8.608;2022-09-03T18:09:47;22.40;99.90
23550;DHT22;11953;49.010;8.608;2022-09-03T18:12:44;22.10;99.90
23550;DHT22;11953;49.010;8.608;2022-09-03T18:15:49;21.90;99.90
23550;DHT22;11953;49.010;8.608;2022-09-03T18:18:45;21.70;99.90
23550;DHT22;11953;49.010;8.608;2022-09-03T18:21:36;21.60;99.90
23550;DHT22;11953;49.010;8.608;2022-09-03T18:24:48;21.60;99.90